sensor_id;sensor_type;location;lat;lon;timestamp;P1;durP1;ratioP1;P2;durP2;ratioP2
54372;SDS011;69157;53.094;10.016;2023-08-24T00:00:11;2.80;;;2.38;;
54372;SDS011;69157;53.094;10.016;2023-08-24T00:02:37;3.47;;;2.70;;
54372;SDS011;69157;53.094;10.016;2023-08-24T00:05:03;4.40;;;2.75;;
54372;SDS011;69157;53.094;10.016;2023-08-24T00:07:30;3.70;;;2.55;;
54372;SDS011;69157;53.094;10.016;2023-08-24T00:09:57;4.47;;;2.65;;
54372;SDS011;69157;53.094;10.016;2023-08-24T00:12:23;4.28;;;2.60;;
54372;SDS011;69157;53.094;10.016;2023-08-24T00:14:49;3.67;;;2.35;;
54372;SDS011;69157;53.094;10.016;2023-08-24T00:17:15;3.35;;;2.33;;
54372;SDS011;69157;53.094;10.016;2023-08-24T00:19:41;2.83;;;2.25;;
54372;SDS011;69157;53.094;10.016;2023-08-24T00:22:07;4.95;;;2.70;;
54372;SDS011;69157;53.094;10.016;2023-08-24T00:24:34;4.22;;;2.45;;
54372;SDS011;69157;53.094;10.016;2023-08-24T00:27:00;3.10;;;2.38;;
54372;SDS011;69157;53.094;10.016;2023-08-24T00:29:26;3.50;;;2.50;;
54372;SDS011;69157;53.094;10.016;2023-08-24T00:31:53;3.75;;;2.47;;
54372;SDS011;69157;53.094;10.016;2023-08-24T00:34:19;2.85;;;2.42;;
54372;SDS011;69157;53.094;10.016;2023-08-24T00:36:45;2.95;;;2.33;;
54372;SDS011;69157;53.094;10.016;2023-08-24T00:39:11;3.30;;;2.55;;
54372;SDS011;69157;53.094;10.016;2023-08-24T00:41:37;4.07;;;2.72;;
54372;SDS011;69157;53.094;10.016;2023-08-24T00:44:03;3.83;;;2.55;;
54372;SDS011;69157;53.094;10.016;2023-08-24T00:46:31;4.45;;;2.63;;
54372;SDS011;69157;53.094;10.016;2023-08-24T00:48:57;2.92;;;2.33;;
54372;SDS011;69157;53.094;10.016;2023-08-24T00:51:24;3.88;;;2.45;;
54372;SDS011;69157;53.094;10.016;2023-08-24T00:53:50;3.80;;;2.53;;
54372;SDS011;69157;53.094;10.016;2023-08-24T00:56:16;5.05;;;2.58;;
54372;SDS011;69157;53.094;10.016;2023-08-24T00:58:42;3.92;;;2.70;;
54372;SDS011;69157;53.094;10.016;2023-08-24T01:01:08;4.32;;;2.35;;
54372;SDS011;69157;53.094;10.016;2023-08-24T01:03:34;4.20;;;2.70;;
54372;SDS011;69157;53.094;10.016;2023-08-24T01:06:00;5.22;;;2.30;;
54372;SDS011;69157;53.094;10.016;2023-08-24T01:08:26;4.90;;;2.85;;
54372;SDS011;69157;53.094;10.016;2023-08-24T01:10:57;2.83;;;2.42;;
54372;SDS011;69157;53.094;10.016;2023-08-24T01:13:27;2.47;;;2.20;;
54372;SDS011;69157;53.094;10.016;2023-08-24T01:15:58;3.40;;;2.42;;
54372;SDS011;69157;53.094;10.016;2023-08-24T01:18:26;5.93;;;2.50;;
54372;SDS011;69157;53.094;10.016;2023-08-24T01:20:53;3.47;;;2.42;;
54372;SDS011;69157;53.094;10.016;2023-08-24T01:23:36;4.00;;;2.50;;
54372;SDS011;69157;53.094;10.016;2023-08-24T01:26:09;5.00;;;2.70;;
54372;SDS011;69157;53.094;10.016;2023-08-24T01:28:36;3.53;;;2.40;;
54372;SDS011;69157;53.094;10.016;2023-08-24T01:31:03;4.93;;;2.58;;
54372;SDS011;69157;53.094;10.016;2023-08-24T01:33:30;3.08;;;2.40;;
54372;SDS011;69157;53.094;10.016;2023-08-24T01:35:56;3.13;;;2.03;;
54372;SDS011;69157;53.094;10.016;2023-08-24T01:38:22;2.85;;;1.95;;
54372;SDS011;69157;53.094;10.016;2023-08-24T01:40:51;4.63;;;2.67;;
54372;SDS011;69157;53.094;10.016;2023-08-24T01:43:20;4.07;;;2.42;;
54372;SDS011;69157;53.094;10.016;2023-08-24T01:45:47;3.40;;;2.63;;
54372;SDS011;69157;53.094;10.016;2023-08-24T01:48:13;3.78;;;2.15;;
54372;SDS011;69157;53.094;10.016;2023-08-24T01:50:39;3.03;;;2.22;;
54372;SDS011;69157;53.094;10.016;2023-08-24T01:53:06;4.47;;;2.65;;
54372;SDS011;69157;53.094;10.016;2023-08-24T01:55:32;3.22;;;2.38;;
54372;SDS011;69157;53.094;10.016;2023-08-24T01:57:58;3.78;;;2.22;;
54372;SDS011;69157;53.094;10.016;2023-08-24T02:00:24;3.55;;;2.10;;
54372;SDS011;69157;53.094;10.016;2023-08-24T02:02:50;3.13;;;2.10;;
54372;SDS011;69157;53.094;10.016;2023-08-24T02:05:16;3.00;;;2.17;;
54372;SDS011;69157;53.094;10.016;2023-08-24T02:07:42;3.45;;;2.20;;
54372;SDS011;69157;53.094;10.016;2023-08-24T02:10:08;3.15;;;2.10;;
54372;SDS011;69157;53.094;10.016;2023-08-24T02:12:34;2.78;;;2.25;;
54372;SDS011;69157;53.094;10.016;2023-08-24T02:15:00;3.95;;;2.40;;
54372;SDS011;69157;53.094;10.016;2023-08-24T02:17:26;2.75;;;2.38;;
54372;SDS011;69157;53.094;10.016;2023-08-24T02:19:52;3.05;;;2.35;;
54372;SDS011;69157;53.094;10.016;2023-08-24T02:22:18;2.60;;;2.25;;
54372;SDS011;69157;53.094;10.016;2023-08-24T02:24:44;3.22;;;2.25;;
54372;SDS011;69157;53.094;10.016;2023-08-24T02:27:11;3.50;;;2.35;;
54372;SDS011;69157;53.094;10.016;2023-08-24T02:29:37;4.25;;;2.60;;
54372;SDS011;69157;53.094;10.016;2023-08-24T02:32:04;3.55;;;2.22;;
54372;SDS011;69157;53.094;10.016;2023-08-24T02:34:30;6.72;;;2.42;;
54372;SDS011;69157;53.094;10.016;2023-08-24T02:36:56;3.63;;;2.55;;
54372;SDS011;69157;53.094;10.016;2023-08-24T02:39:22;3.53;;;2.40;;
54372;SDS011;69157;53.094;10.016;2023-08-24T02:41:49;2.80;;;2.10;;
54372;SDS011;69157;53.094;10.016;2023-08-24T02:44:15;3.25;;;2.20;;
54372;SDS011;69157;53.094;10.016;2023-08-24T02:46:43;3.25;;;2.38;;
54372;SDS011;69157;53.094;10.016;2023-08-24T02:49:09;4.72;;;2.60;;
54372;SDS011;69157;53.094;10.016;2023-08-24T02:51:35;3.45;;;2.53;;
54372;SDS011;69157;53.094;10.016;2023-08-24T02:54:01;3.40;;;2.55;;
54372;SDS011;69157;53.094;10.016;2023-08-24T02:56:27;3.10;;;2.28;;
54372;SDS011;69157;53.094;10.016;2023-08-24T02:58:53;2.85;;;2.17;;
54372;SDS011;69157;53.094;10.016;2023-08-24T03:01:19;3.42;;;2.30;;
54372;SDS011;69157;53.094;10.016;2023-08-24T03:03:45;3.13;;;2.25;;
54372;SDS011;69157;53.094;10.016;2023-08-24T03:06:11;2.92;;;2.10;;
54372;SDS011;69157;53.094;10.016;2023-08-24T03:08:37;1.98;;;1.77;;
54372;SDS011;69157;53.094;10.016;2023-08-24T03:11:03;4.07;;;2.40;;
54372;SDS011;69157;53.094;10.016;2023-08-24T03:13:30;3.35;;;2.03;;
54372;SDS011;69157;53.094;10.016;2023-08-24T03:15:56;3.75;;;2.00;;
54372;SDS011;69157;53.094;10.016;2023-08-24T03:18:22;3.22;;;2.35;;
54372;SDS011;69157;53.094;10.016;2023-08-24T03:20:49;3.50;;;2.40;;
54372;SDS011;69157;53.094;10.016;2023-08-24T03:23:15;2.35;;;1.95;;
54372;SDS011;69157;53.094;10.016;2023-08-24T03:25:41;3.00;;;2.42;;
54372;SDS011;69157;53.094;10.016;2023-08-24T03:28:08;2.85;;;2.20;;
54372;SDS011;69157;53.094;10.016;2023-08-24T03:30:38;3.05;;;2.28;;
54372;SDS011;69157;53.094;10.016;2023-08-24T03:33:04;3.50;;;2.28;;
54372;SDS011;69157;53.094;10.016;2023-08-24T03:35:30;3.00;;;1.90;;
54372;SDS011;69157;53.094;10.016;2023-08-24T03:37:56;2.70;;;2.00;;
54372;SDS011;69157;53.094;10.016;2023-08-24T03:40:22;2.92;;;2.00;;
54372;SDS011;69157;53.094;10.016;2023-08-24T03:42:48;3.13;;;2.15;;
54372;SDS011;69157;53.094;10.016;2023-08-24T03:45:14;3.28;;;1.85;;
54372;SDS011;69157;53.094;10.016;2023-08-24T03:47:40;3.92;;;2.20;;
54372;SDS011;69157;53.094;10.016;2023-08-24T03:50:07;2.97;;;2.00;;
54372;SDS011;69157;53.094;10.016;2023-08-24T03:52:33;2.63;;;1.92;;
54372;SDS011;69157;53.094;10.016;2023-08-24T03:54:59;2.85;;;2.03;;
54372;SDS011;69157;53.094;10.016;2023-08-24T03:57:25;2.50;;;2.08;;
54372;SDS011;69157;53.094;10.016;2023-08-24T03:59:51;3.20;;;2.20;;
54372;SDS011;69157;53.094;10.016;2023-08-24T04:02:17;2.17;;;1.95;;
54372;SDS011;69157;53.094;10.016;2023-08-24T04:04:43;2.97;;;2.13;;
54372;SDS011;69157;53.094;10.016;2023-08-24T04:07:09;3.28;;;2.25;;
54372;SDS011;69157;53.094;10.016;2023-08-24T04:09:35;3.47;;;1.73;;
54372;SDS011;69157;53.094;10.016;2023-08-24T04:12:01;2.85;;;2.13;;
54372;SDS011;69157;53.094;10.016;2023-08-24T04:14:27;4.65;;;2.10;;
54372;SDS011;69157;53.094;10.016;2023-08-24T04:16:53;3.65;;;2.25;;
54372;SDS011;69157;53.094;10.016;2023-08-24T04:19:20;2.92;;;2.40;;
54372;SDS011;69157;53.094;10.016;2023-08-24T04:21:46;3.03;;;2.55;;
54372;SDS011;69157;53.094;10.016;2023-08-24T04:24:12;4.13;;;2.70;;
54372;SDS011;69157;53.094;10.016;2023-08-24T04:26:38;3.85;;;2.63;;
54372;SDS011;69157;53.094;10.016;2023-08-24T04:29:04;3.70;;;2.63;;
54372;SDS011;69157;53.094;10.016;2023-08-24T04:31:30;5.10;;;2.45;;
54372;SDS011;69157;53.094;10.016;2023-08-24T04:33:56;4.03;;;2.45;;
54372;SDS011;69157;53.094;10.016;2023-08-24T04:36:22;4.00;;;2.13;;
54372;SDS011;69157;53.094;10.016;2023-08-24T04:38:48;3.80;;;2.45;;
54372;SDS011;69157;53.094;10.016;2023-08-24T04:41:14;3.70;;;2.28;;
54372;SDS011;69157;53.094;10.016;2023-08-24T04:43:40;3.00;;;2.63;;
54372;SDS011;69157;53.094;10.016;2023-08-24T04:46:06;3.47;;;2.40;;
54372;SDS011;69157;53.094;10.016;2023-08-24T04:48:33;4.18;;;2.13;;
54372;SDS011;69157;53.094;10.016;2023-08-24T04:51:00;2.92;;;2.30;;
54372;SDS011;69157;53.094;10.016;2023-08-24T04:53:26;3.38;;;2.58;;
54372;SDS011;69157;53.094;10.016;2023-08-24T04:55:53;5.03;;;2.60;;
54372;SDS011;69157;53.094;10.016;2023-08-24T04:58:19;3.22;;;2.20;;
54372;SDS011;69157;53.094;10.016;2023-08-24T05:00:45;3.17;;;2.42;;
54372;SDS011;69157;53.094;10.016;2023-08-24T05:03:11;4.32;;;2.60;;
54372;SDS011;69157;53.094;10.016;2023-08-24T05:05:38;3.25;;;2.60;;
54372;SDS011;69157;53.094;10.016;2023-08-24T05:08:05;3.72;;;2.63;;
54372;SDS011;69157;53.094;10.016;2023-08-24T05:10:31;3.97;;;2.30;;
54372;SDS011;69157;53.094;10.016;2023-08-24T05:12:58;3.20;;;2.30;;
54372;SDS011;69157;53.094;10.016;2023-08-24T05:15:24;4.05;;;2.50;;
54372;SDS011;69157;53.094;10.016;2023-08-24T05:17:50;3.95;;;2.55;;
54372;SDS011;69157;53.094;10.016;2023-08-24T05:20:21;3.28;;;2.38;;
54372;SDS011;69157;53.094;10.016;2023-08-24T05:22:47;2.83;;;2.30;;
54372;SDS011;69157;53.094;10.016;2023-08-24T05:25:13;3.75;;;2.55;;
54372;SDS011;69157;53.094;10.016;2023-08-24T05:27:41;3.25;;;2.38;;
54372;SDS011;69157;53.094;10.016;2023-08-24T05:30:08;3.13;;;2.40;;
54372;SDS011;69157;53.094;10.016;2023-08-24T05:32:34;3.15;;;2.42;;
54372;SDS011;69157;53.094;10.016;2023-08-24T05:35:03;3.75;;;2.60;;
54372;SDS011;69157;53.094;10.016;2023-08-24T05:37:29;3.28;;;2.40;;
54372;SDS011;69157;53.094;10.016;2023-08-24T05:39:55;2.92;;;2.42;;
54372;SDS011;69157;53.094;10.016;2023-08-24T05:42:21;4.43;;;2.38;;
54372;SDS011;69157;53.094;10.016;2023-08-24T05:44:47;5.07;;;2.47;;
54372;SDS011;69157;53.094;10.016;2023-08-24T05:47:13;2.80;;;2.50;;
54372;SDS011;69157;53.094;10.016;2023-08-24T05:49:39;2.67;;;2.20;;
54372;SDS011;69157;53.094;10.016;2023-08-24T05:52:05;4.63;;;2.53;;
54372;SDS011;69157;53.094;10.016;2023-08-24T05:54:31;5.25;;;2.78;;
54372;SDS011;69157;53.094;10.016;2023-08-24T05:56:57;3.50;;;2.60;;
54372;SDS011;69157;53.094;10.016;2023-08-24T05:59:26;4.38;;;3.03;;
54372;SDS011;69157;53.094;10.016;2023-08-24T06:01:52;5.57;;;2.90;;
54372;SDS011;69157;53.094;10.016;2023-08-24T06:04:18;2.75;;;2.38;;
54372;SDS011;69157;53.094;10.016;2023-08-24T06:06:44;4.05;;;2.33;;
54372;SDS011;69157;53.094;10.016;2023-08-24T06:09:10;3.42;;;2.60;;
54372;SDS011;69157;53.094;10.016;2023-08-24T06:11:36;4.78;;;2.65;;
54372;SDS011;69157;53.094;10.016;2023-08-24T06:14:03;4.07;;;2.47;;
54372;SDS011;69157;53.094;10.016;2023-08-24T06:16:29;2.55;;;2.15;;
54372;SDS011;69157;53.094;10.016;2023-08-24T06:18:55;3.13;;;2.30;;
54372;SDS011;69157;53.094;10.016;2023-08-24T06:21:21;2.20;;;1.90;;
54372;SDS011;69157;53.094;10.016;2023-08-24T06:23:47;3.53;;;2.13;;
54372;SDS011;69157;53.094;10.016;2023-08-24T06:26:13;2.55;;;1.80;;
54372;SDS011;69157;53.094;10.016;2023-08-24T06:28:40;3.40;;;2.00;;
54372;SDS011;69157;53.094;10.016;2023-08-24T06:31:06;2.97;;;2.50;;
54372;SDS011;69157;53.094;10.016;2023-08-24T06:33:33;5.60;;;3.25;;
54372;SDS011;69157;53.094;10.016;2023-08-24T06:35:59;4.65;;;2.50;;
54372;SDS011;69157;53.094;10.016;2023-08-24T06:38:26;5.50;;;2.92;;
54372;SDS011;69157;53.094;10.016;2023-08-24T06:40:52;4.25;;;2.78;;
54372;SDS011;69157;53.094;10.016;2023-08-24T06:43:18;3.42;;;2.50;;
54372;SDS011;69157;53.094;10.016;2023-08-24T06:45:44;5.47;;;2.95;;
54372;SDS011;69157;53.094;10.016;2023-08-24T06:48:10;4.35;;;2.83;;
54372;SDS011;69157;53.094;10.016;2023-08-24T06:50:36;4.45;;;2.55;;
54372;SDS011;69157;53.094;10.016;2023-08-24T06:53:02;4.60;;;2.53;;
54372;SDS011;69157;53.094;10.016;2023-08-24T06:55:29;4.28;;;2.60;;
54372;SDS011;69157;53.094;10.016;2023-08-24T06:57:55;4.43;;;2.70;;
54372;SDS011;69157;53.094;10.016;2023-08-24T07:00:21;3.83;;;2.35;;
54372;SDS011;69157;53.094;10.016;2023-08-24T07:02:48;6.13;;;2.05;;
54372;SDS011;69157;53.094;10.016;2023-08-24T07:05:14;2.85;;;2.10;;
54372;SDS011;69157;53.094;10.016;2023-08-24T07:07:43;4.80;;;2.30;;
54372;SDS011;69157;53.094;10.016;2023-08-24T07:10:10;3.22;;;1.90;;
54372;SDS011;69157;53.094;10.016;2023-08-24T07:12:36;4.43;;;1.90;;
54372;SDS011;69157;53.094;10.016;2023-08-24T07:15:04;2.00;;;1.60;;
54372;SDS011;69157;53.094;10.016;2023-08-24T07:17:30;2.88;;;2.05;;
54372;SDS011;69157;53.094;10.016;2023-08-24T07:19:57;3.83;;;1.95;;
54372;SDS011;69157;53.094;10.016;2023-08-24T07:22:23;3.03;;;1.40;;
54372;SDS011;69157;53.094;10.016;2023-08-24T07:24:51;2.38;;;1.50;;
54372;SDS011;69157;53.094;10.016;2023-08-24T07:27:17;2.30;;;1.77;;
54372;SDS011;69157;53.094;10.016;2023-08-24T07:29:43;1.88;;;1.50;;
54372;SDS011;69157;53.094;10.016;2023-08-24T07:32:09;2.22;;;1.65;;
54372;SDS011;69157;53.094;10.016;2023-08-24T07:34:35;2.80;;;1.50;;
54372;SDS011;69157;53.094;10.016;2023-08-24T07:37:02;2.60;;;1.23;;
54372;SDS011;69157;53.094;10.016;2023-08-24T07:39:28;1.40;;;1.20;;
54372;SDS011;69157;53.094;10.016;2023-08-24T07:41:54;2.17;;;1.27;;
54372;SDS011;69157;53.094;10.016;2023-08-24T07:44:20;2.60;;;1.20;;
54372;SDS011;69157;53.094;10.016;2023-08-24T07:46:49;1.42;;;1.02;;
54372;SDS011;69157;53.094;10.016;2023-08-24T07:49:15;1.65;;;1.23;;
54372;SDS011;69157;53.094;10.016;2023-08-24T07:51:41;1.55;;;1.00;;
54372;SDS011;69157;53.094;10.016;2023-08-24T07:54:12;2.58;;;1.23;;
54372;SDS011;69157;53.094;10.016;2023-08-24T07:56:38;2.50;;;1.20;;
54372;SDS011;69157;53.094;10.016;2023-08-24T07:59:04;2.45;;;1.40;;
54372;SDS011;69157;53.094;10.016;2023-08-24T08:01:30;2.00;;;1.20;;
54372;SDS011;69157;53.094;10.016;2023-08-24T08:03:56;1.77;;;1.20;;
54372;SDS011;69157;53.094;10.016;2023-08-24T08:06:22;1.75;;;1.10;;
54372;SDS011;69157;53.094;10.016;2023-08-24T08:08:50;1.25;;;1.00;;
54372;SDS011;69157;53.094;10.016;2023-08-24T08:11:16;2.45;;;1.00;;
54372;SDS011;69157;53.094;10.016;2023-08-24T08:13:42;2.72;;;1.13;;
54372;SDS011;69157;53.094;10.016;2023-08-24T08:16:09;1.02;;;0.95;;
54372;SDS011;69157;53.094;10.016;2023-08-24T08:18:35;1.55;;;1.45;;
54372;SDS011;69157;53.094;10.016;2023-08-24T08:21:08;2.45;;;1.30;;
54372;SDS011;69157;53.094;10.016;2023-08-24T08:23:35;1.10;;;0.95;;
54372;SDS011;69157;53.094;10.016;2023-08-24T08:26:00;1.25;;;0.95;;
54372;SDS011;69157;53.094;10.016;2023-08-24T08:28:26;1.60;;;1.23;;
54372;SDS011;69157;53.094;10.016;2023-08-24T08:30:52;1.80;;;1.00;;
54372;SDS011;69157;53.094;10.016;2023-08-24T08:33:19;2.28;;;1.25;;
54372;SDS011;69157;53.094;10.016;2023-08-24T08:35:46;2.22;;;1.27;;
54372;SDS011;69157;53.094;10.016;2023-08-24T08:38:12;1.30;;;0.93;;
54372;SDS011;69157;53.094;10.016;2023-08-24T08:40:39;2.20;;;1.25;;
54372;SDS011;69157;53.094;10.016;2023-08-24T08:43:06;2.40;;;1.20;;
54372;SDS011;69157;53.094;10.016;2023-08-24T08:45:32;1.58;;;1.00;;
54372;SDS011;69157;53.094;10.016;2023-08-24T08:48:01;2.05;;;1.38;;
54372;SDS011;69157;53.094;10.016;2023-08-24T08:50:28;1.40;;;1.02;;
54372;SDS011;69157;53.094;10.016;2023-08-24T08:52:55;2.15;;;1.20;;
54372;SDS011;69157;53.094;10.016;2023-08-24T08:55:22;5.63;;;1.30;;
54372;SDS011;69157;53.094;10.016;2023-08-24T08:57:49;2.42;;;1.10;;
54372;SDS011;69157;53.094;10.016;2023-08-24T09:00:16;3.05;;;1.50;;
54372;SDS011;69157;53.094;10.016;2023-08-24T09:02:42;1.50;;;1.20;;
54372;SDS011;69157;53.094;10.016;2023-08-24T09:05:10;2.03;;;1.33;;
54372;SDS011;69157;53.094;10.016;2023-08-24T09:07:36;1.13;;;1.02;;
54372;SDS011;69157;53.094;10.016;2023-08-24T09:10:05;1.63;;;1.40;;
54372;SDS011;69157;53.094;10.016;2023-08-24T09:12:32;3.40;;;1.20;;
54372;SDS011;69157;53.094;10.016;2023-08-24T09:14:58;1.33;;;0.95;;
54372;SDS011;69157;53.094;10.016;2023-08-24T09:17:24;3.65;;;1.58;;
54372;SDS011;69157;53.094;10.016;2023-08-24T09:19:53;1.60;;;1.45;;
54372;SDS011;69157;53.094;10.016;2023-08-24T09:22:19;1.40;;;1.27;;
54372;SDS011;69157;53.094;10.016;2023-08-24T09:24:48;1.73;;;1.08;;
54372;SDS011;69157;53.094;10.016;2023-08-24T09:27:19;2.25;;;1.13;;
54372;SDS011;69157;53.094;10.016;2023-08-24T09:29:52;1.98;;;1.20;;
54372;SDS011;69157;53.094;10.016;2023-08-24T09:32:21;1.95;;;1.20;;
54372;SDS011;69157;53.094;10.016;2023-08-24T09:37:14;2.58;;;1.30;;
54372;SDS011;69157;53.094;10.016;2023-08-24T09:39:41;1.38;;;1.20;;
54372;SDS011;69157;53.094;10.016;2023-08-24T09:42:07;1.38;;;1.25;;
54372;SDS011;69157;53.094;10.016;2023-08-24T09:44:33;4.05;;;1.38;;
54372;SDS011;69157;53.094;10.016;2023-08-24T09:46:59;1.77;;;1.45;;
54372;SDS011;69157;53.094;10.016;2023-08-24T09:49:25;1.65;;;1.30;;
54372;SDS011;69157;53.094;10.016;2023-08-24T09:51:56;2.70;;;1.50;;
54372;SDS011;69157;53.094;10.016;2023-08-24T09:54:26;2.22;;;1.30;;
54372;SDS011;69157;53.094;10.016;2023-08-24T09:56:54;5.13;;;1.65;;
54372;SDS011;69157;53.094;10.016;2023-08-24T09:59:23;2.15;;;1.48;;
54372;SDS011;69157;53.094;10.016;2023-08-24T10:01:50;1.95;;;1.30;;
54372;SDS011;69157;53.094;10.016;2023-08-24T10:04:28;1.55;;;1.33;;
54372;SDS011;69157;53.094;10.016;2023-08-24T10:07:08;1.80;;;1.17;;
54372;SDS011;69157;53.094;10.016;2023-08-24T10:09:43;2.75;;;1.73;;
54372;SDS011;69157;53.094;10.016;2023-08-24T10:12:10;1.65;;;1.55;;
54372;SDS011;69157;53.094;10.016;2023-08-24T10:17:02;3.17;;;1.38;;
54372;SDS011;69157;53.094;10.016;2023-08-24T10:19:29;2.25;;;1.45;;
54372;SDS011;69157;53.094;10.016;2023-08-24T10:21:55;1.50;;;1.30;;
54372;SDS011;69157;53.094;10.016;2023-08-24T10:24:22;2.45;;;1.67;;
54372;SDS011;69157;53.094;10.016;2023-08-24T10:26:49;1.42;;;1.33;;
54372;SDS011;69157;53.094;10.016;2023-08-24T10:29:16;2.15;;;1.60;;
54372;SDS011;69157;53.094;10.016;2023-08-24T10:31:42;1.92;;;1.40;;
54372;SDS011;69157;53.094;10.016;2023-08-24T10:34:08;2.65;;;1.50;;
54372;SDS011;69157;53.094;10.016;2023-08-24T10:36:37;1.85;;;1.40;;
54372;SDS011;69157;53.094;10.016;2023-08-24T10:39:03;1.75;;;1.48;;
54372;SDS011;69157;53.094;10.016;2023-08-24T10:41:43;2.17;;;1.40;;
54372;SDS011;69157;53.094;10.016;2023-08-24T10:44:13;2.75;;;1.60;;
54372;SDS011;69157;53.094;10.016;2023-08-24T10:46:45;3.35;;;1.80;;
54372;SDS011;69157;53.094;10.016;2023-08-24T10:49:31;2.20;;;1.42;;
54372;SDS011;69157;53.094;10.016;2023-08-24T10:51:57;2.20;;;1.50;;
54372;SDS011;69157;53.094;10.016;2023-08-24T10:54:32;3.20;;;1.25;;
54372;SDS011;69157;53.094;10.016;2023-08-24T10:57:08;2.42;;;1.40;;
54372;SDS011;69157;53.094;10.016;2023-08-24T10:59:43;2.85;;;1.40;;
54372;SDS011;69157;53.094;10.016;2023-08-24T11:02:10;1.65;;;1.55;;
54372;SDS011;69157;53.094;10.016;2023-08-24T11:05:03;4.40;;;1.38;;
54372;SDS011;69157;53.094;10.016;2023-08-24T11:07:29;2.30;;;1.50;;
54372;SDS011;69157;53.094;10.016;2023-08-24T11:09:55;2.15;;;1.60;;
54372;SDS011;69157;53.094;10.016;2023-08-24T11:12:21;1.85;;;1.38;;
54372;SDS011;69157;53.094;10.016;2023-08-24T11:14:51;1.98;;;1.58;;
54372;SDS011;69157;53.094;10.016;2023-08-24T11:17:20;1.98;;;1.33;;
54372;SDS011;69157;53.094;10.016;2023-08-24T11:19:50;2.58;;;1.38;;
54372;SDS011;69157;53.094;10.016;2023-08-24T11:22:17;1.30;;;1.20;;
54372;SDS011;69157;53.094;10.016;2023-08-24T11:24:43;1.45;;;1.10;;
54372;SDS011;69157;53.094;10.016;2023-08-24T11:27:09;2.05;;;1.77;;
54372;SDS011;69157;53.094;10.016;2023-08-24T11:29:35;1.35;;;1.10;;
54372;SDS011;69157;53.094;10.016;2023-08-24T11:32:01;3.92;;;1.67;;
54372;SDS011;69157;53.094;10.016;2023-08-24T11:34:27;1.20;;;0.93;;
54372;SDS011;69157;53.094;10.016;2023-08-24T11:36:53;3.25;;;1.40;;
54372;SDS011;69157;53.094;10.016;2023-08-24T11:39:20;2.45;;;1.20;;
54372;SDS011;69157;53.094;10.016;2023-08-24T11:41:57;2.53;;;1.40;;
54372;SDS011;69157;53.094;10.016;2023-08-24T11:44:23;1.55;;;1.15;;
54372;SDS011;69157;53.094;10.016;2023-08-24T11:46:49;1.92;;;1.17;;
54372;SDS011;69157;53.094;10.016;2023-08-24T11:49:16;1.88;;;1.20;;
54372;SDS011;69157;53.094;10.016;2023-08-24T11:51:42;1.63;;;1.20;;
54372;SDS011;69157;53.094;10.016;2023-08-24T11:54:08;3.22;;;1.50;;
54372;SDS011;69157;53.094;10.016;2023-08-24T11:56:40;1.45;;;1.23;;
54372;SDS011;69157;53.094;10.016;2023-08-24T11:59:06;1.23;;;1.13;;
54372;SDS011;69157;53.094;10.016;2023-08-24T12:04:04;1.52;;;1.20;;
54372;SDS011;69157;53.094;10.016;2023-08-24T12:06:30;4.22;;;1.40;;
54372;SDS011;69157;53.094;10.016;2023-08-24T12:08:56;2.22;;;1.40;;
54372;SDS011;69157;53.094;10.016;2023-08-24T12:11:22;1.60;;;1.27;;
54372;SDS011;69157;53.094;10.016;2023-08-24T12:13:55;1.63;;;1.27;;
54372;SDS011;69157;53.094;10.016;2023-08-24T12:16:21;1.63;;;1.15;;
54372;SDS011;69157;53.094;10.016;2023-08-24T12:18:55;2.65;;;1.15;;
54372;SDS011;69157;53.094;10.016;2023-08-24T12:21:24;1.52;;;1.38;;
54372;SDS011;69157;53.094;10.016;2023-08-24T12:23:57;1.30;;;1.17;;
54372;SDS011;69157;53.094;10.016;2023-08-24T12:26:23;2.67;;;1.20;;
54372;SDS011;69157;53.094;10.016;2023-08-24T12:28:50;1.15;;;1.05;;
54372;SDS011;69157;53.094;10.016;2023-08-24T12:31:17;1.50;;;1.13;;
54372;SDS011;69157;53.094;10.016;2023-08-24T12:33:43;1.70;;;1.30;;
54372;SDS011;69157;53.094;10.016;2023-08-24T12:36:09;2.10;;;1.25;;
54372;SDS011;69157;53.094;10.016;2023-08-24T12:38:35;1.20;;;1.08;;
54372;SDS011;69157;53.094;10.016;2023-08-24T12:41:01;2.15;;;1.27;;
54372;SDS011;69157;53.094;10.016;2023-08-24T12:43:27;1.20;;;1.10;;
54372;SDS011;69157;53.094;10.016;2023-08-24T12:45:53;2.42;;;1.17;;
54372;SDS011;69157;53.094;10.016;2023-08-24T12:48:20;1.48;;;1.10;;
54372;SDS011;69157;53.094;10.016;2023-08-24T12:50:46;2.15;;;0.95;;
54372;SDS011;69157;53.094;10.016;2023-08-24T12:53:12;1.77;;;1.20;;
54372;SDS011;69157;53.094;10.016;2023-08-24T12:55:38;2.92;;;1.10;;
54372;SDS011;69157;53.094;10.016;2023-08-24T12:58:05;1.60;;;1.42;;
54372;SDS011;69157;53.094;10.016;2023-08-24T13:00:31;1.35;;;1.00;;
54372;SDS011;69157;53.094;10.016;2023-08-24T13:02:57;1.30;;;1.17;;
54372;SDS011;69157;53.094;10.016;2023-08-24T13:05:23;2.03;;;1.10;;
54372;SDS011;69157;53.094;10.016;2023-08-24T13:07:49;1.98;;;1.30;;
54372;SDS011;69157;53.094;10.016;2023-08-24T13:10:16;1.17;;;1.08;;
54372;SDS011;69157;53.094;10.016;2023-08-24T13:12:42;1.77;;;1.10;;
54372;SDS011;69157;53.094;10.016;2023-08-24T13:15:09;2.15;;;1.20;;
54372;SDS011;69157;53.094;10.016;2023-08-24T13:17:36;1.42;;;1.10;;
54372;SDS011;69157;53.094;10.016;2023-08-24T13:20:02;1.27;;;1.17;;
54372;SDS011;69157;53.094;10.016;2023-08-24T13:22:28;1.48;;;1.17;;
54372;SDS011;69157;53.094;10.016;2023-08-24T13:24:54;2.85;;;1.08;;
54372;SDS011;69157;53.094;10.016;2023-08-24T13:27:22;1.85;;;1.00;;
54372;SDS011;69157;53.094;10.016;2023-08-24T13:29:48;1.10;;;1.00;;
54372;SDS011;69157;53.094;10.016;2023-08-24T13:32:14;1.60;;;1.20;;
54372;SDS011;69157;53.094;10.016;2023-08-24T13:34:40;2.47;;;1.00;;
54372;SDS011;69157;53.094;10.016;2023-08-24T13:37:06;1.23;;;1.10;;
54372;SDS011;69157;53.094;10.016;2023-08-24T13:39:32;1.67;;;1.05;;
54372;SDS011;69157;53.094;10.016;2023-08-24T13:42:01;1.25;;;1.15;;
54372;SDS011;69157;53.094;10.016;2023-08-24T13:44:27;1.40;;;1.10;;
54372;SDS011;69157;53.094;10.016;2023-08-24T13:46:53;1.30;;;1.20;;
54372;SDS011;69157;53.094;10.016;2023-08-24T13:49:19;4.70;;;1.35;;
54372;SDS011;69157;53.094;10.016;2023-08-24T13:51:45;1.35;;;1.20;;
54372;SDS011;69157;53.094;10.016;2023-08-24T13:54:18;1.20;;;1.00;;
54372;SDS011;69157;53.094;10.016;2023-08-24T13:56:46;2.22;;;1.20;;
54372;SDS011;69157;53.094;10.016;2023-08-24T13:59:12;2.38;;;1.10;;
54372;SDS011;69157;53.094;10.016;2023-08-24T14:01:38;2.22;;;1.20;;
54372;SDS011;69157;53.094;10.016;2023-08-24T14:04:04;1.10;;;1.00;;
54372;SDS011;69157;53.094;10.016;2023-08-24T14:06:31;1.30;;;1.00;;
54372;SDS011;69157;53.094;10.016;2023-08-24T14:08:58;1.20;;;1.10;;
54372;SDS011;69157;53.094;10.016;2023-08-24T14:11:24;1.40;;;1.17;;
54372;SDS011;69157;53.094;10.016;2023-08-24T14:13:51;1.52;;;1.20;;
54372;SDS011;69157;53.094;10.016;2023-08-24T14:16:17;1.38;;;1.00;;
54372;SDS011;69157;53.094;10.016;2023-08-24T14:18:44;1.33;;;0.93;;
54372;SDS011;69157;53.094;10.016;2023-08-24T14:21:10;1.55;;;1.20;;
54372;SDS011;69157;53.094;10.016;2023-08-24T14:23:36;1.95;;;0.80;;
54372;SDS011;69157;53.094;10.016;2023-08-24T14:26:02;1.55;;;0.98;;
54372;SDS011;69157;53.094;10.016;2023-08-24T14:31:13;1.10;;;1.00;;
54372;SDS011;69157;53.094;10.016;2023-08-24T14:33:39;1.25;;;1.08;;
54372;SDS011;69157;53.094;10.016;2023-08-24T14:36:05;1.33;;;0.95;;
54372;SDS011;69157;53.094;10.016;2023-08-24T14:38:31;1.65;;;1.30;;
54372;SDS011;69157;53.094;10.016;2023-08-24T14:40:57;1.90;;;1.30;;